createdAt,value
2019-03-15T00:00:33.450Z,100367.13
2019-03-15T00:03:56.961Z,100376.05
2019-03-15T00:07:20.144Z,100376.61
2019-03-15T00:10:43.424Z,100385.21
2019-03-15T00:14:06.595Z,100389.29
2019-03-15T00:17:29.665Z,100398.88
2019-03-15T00:20:53.115Z,100403.61
2019-03-15T00:24:16.292Z,100401.41
2019-03-15T00:27:39.412Z,100396.89
2019-03-15T00:31:02.658Z,100403.86
2019-03-15T00:34:26.657Z,100401.70
2019-03-15T00:37:49.885Z,100405.88
2019-03-15T00:41:13.110Z,100408.80
2019-03-15T00:44:36.412Z,100414.62
2019-03-15T00:47:59.584Z,100426.38
2019-03-15T00:51:22.830Z,100425.48
2019-03-15T00:54:45.955Z,100419.38
2019-03-15T00:58:09.101Z,100420.48
2019-03-15T01:01:32.404Z,100415.39
2019-03-15T01:04:55.581Z,100435.11
2019-03-15T01:08:19.026Z,100425.23
2019-03-15T01:11:45.362Z,100427.50
2019-03-15T01:15:07.417Z,100412.19
2019-03-15T01:18:30.582Z,100413.81
2019-03-15T01:21:53.994Z,100409.72
2019-03-15T01:25:18.533Z,100409.83
2019-03-15T01:28:41.641Z,100403.72
2019-03-15T01:32:04.795Z,100414.01
2019-03-15T01:35:28.226Z,100413.45
2019-03-15T01:38:51.544Z,100414.41
2019-03-15T01:42:14.620Z,100415.20
2019-03-15T01:45:37.778Z,100407.75
2019-03-15T01:49:00.903Z,100401.80
2019-03-15T01:52:24.437Z,100402.79
2019-03-15T01:55:47.614Z,100394.67
2019-03-15T01:59:11.398Z,100389.60
2019-03-15T02:02:34.577Z,100399.01
2019-03-15T02:05:58.134Z,100383.95
2019-03-15T02:09:21.233Z,100381.54
2019-03-15T02:12:44.475Z,100375.13
2019-03-15T02:16:08.762Z,100382.71
2019-03-15T02:19:32.106Z,100382.02
2019-03-15T02:22:55.306Z,100372.33
2019-03-15T02:26:18.368Z,100368.91
2019-03-15T02:29:41.826Z,100356.48
2019-03-15T02:33:06.034Z,100365.72
2019-03-15T02:36:29.609Z,100365.89
2019-03-15T02:39:52.865Z,100359.03
2019-03-15T02:43:16.117Z,100349.27
2019-03-15T02:46:39.261Z,100349.37
2019-03-15T02:50:02.580Z,100337.55
2019-03-15T02:53:25.992Z,100342.94
2019-03-15T02:56:50.127Z,100344.39
2019-03-15T03:00:13.984Z,100346.83
2019-03-15T03:03:37.542Z,100351.84
2019-03-15T03:07:00.834Z,100349.28
2019-03-15T03:10:24.509Z,100348.53
2019-03-15T03:13:47.675Z,100347.56
2019-03-15T03:17:10.812Z,100348.89
2019-03-15T03:20:33.915Z,100340.17
2019-03-15T03:23:57.544Z,100327.42
2019-03-15T03:27:20.976Z,100331.28
2019-03-15T03:30:45.750Z,100324.05
2019-03-15T03:34:09.202Z,100323.16
2019-03-15T03:37:32.395Z,100311.42
2019-03-15T03:40:56.432Z,100312.52
2019-03-15T03:44:19.895Z,100308.55
2019-03-15T03:47:43.513Z,100307.84
2019-03-15T03:51:06.758Z,100306.78
2019-03-15T03:54:30.505Z,100290.25
2019-03-15T03:57:53.786Z,100288.30
2019-03-15T04:01:16.914Z,100298.45
2019-03-15T04:04:40.078Z,100285.48
2019-03-15T04:08:03.232Z,100295.37
2019-03-15T04:11:26.686Z,100281.98
2019-03-15T04:14:50.073Z,100278.77
2019-03-15T04:18:13.539Z,100275.98
2019-03-15T04:21:36.972Z,100275.13
2019-03-15T04:25:00.145Z,100287.41
2019-03-15T04:28:23.446Z,100291.87
2019-03-15T04:31:46.530Z,100291.75
2019-03-15T04:35:09.766Z,100289.41
2019-03-15T04:38:32.887Z,100289.42
2019-03-15T04:41:56.323Z,100282.56
2019-03-15T04:45:19.851Z,100275.00
2019-03-15T04:48:43.530Z,100273.40
2019-03-15T04:52:06.937Z,100276.45
2019-03-15T04:55:30.073Z,100268.74
2019-03-15T04:58:53.495Z,100263.06
2019-03-15T05:02:17.046Z,100263.69
2019-03-15T05:05:40.318Z,100269.92
2019-03-15T05:09:04.562Z,100270.24
2019-03-15T05:12:27.731Z,100277.16
2019-03-15T05:15:50.884Z,100267.93
2019-03-15T05:19:14.259Z,100268.70
2019-03-15T05:22:37.383Z,100262.88
2019-03-15T05:26:02.148Z,100240.07
2019-03-15T05:29:25.358Z,100235.71
2019-03-15T05:32:48.857Z,100228.62
2019-03-15T05:36:12.078Z,100221.11
2019-03-15T05:39:35.279Z,100220.41
2019-03-15T05:42:58.464Z,100219.54
2019-03-15T05:46:21.939Z,100220.25
2019-03-15T05:49:45.179Z,100216.05
2019-03-15T05:53:08.363Z,100213.73
2019-03-15T05:56:31.816Z,100208.47
2019-03-15T05:59:55.304Z,100194.62
2019-03-15T06:03:18.566Z,100198.48
2019-03-15T06:06:41.840Z,100199.28
2019-03-15T06:10:05.948Z,100204.10
2019-03-15T06:13:29.632Z,100183.72
2019-03-15T06:16:53.129Z,100185.28
2019-03-15T06:20:16.253Z,100183.39
2019-03-15T06:23:39.345Z,100168.14
2019-03-15T06:27:03.511Z,100179.47
2019-03-15T06:30:31.821Z,100193.61
2019-03-15T06:33:54.987Z,100187.22
2019-03-15T06:37:18.462Z,100186.30
2019-03-15T06:40:41.790Z,100182.60
2019-03-15T06:44:04.976Z,100189.95
2019-03-15T06:47:28.576Z,100184.13
2019-03-15T06:50:51.769Z,100176.97
2019-03-15T06:54:15.028Z,100176.63
2019-03-15T06:57:39.101Z,100171.45
2019-03-15T07:01:02.299Z,100167.77
2019-03-15T07:04:25.560Z,100163.80
2019-03-15T07:07:48.964Z,100158.91
2019-03-15T07:11:12.276Z,100153.72
2019-03-15T07:14:35.461Z,100143.50
2019-03-15T07:17:58.822Z,100141.78
2019-03-15T07:21:21.966Z,100134.95
2019-03-15T07:24:45.104Z,100126.62
2019-03-15T07:28:08.414Z,100118.87
2019-03-15T07:31:31.677Z,100115.86
2019-03-15T07:34:54.841Z,100106.78
2019-03-15T07:38:18.144Z,100088.86
2019-03-15T07:41:41.697Z,100067.89
2019-03-15T07:45:05.181Z,100067.84
2019-03-15T07:48:28.524Z,100063.98
2019-03-15T07:51:51.868Z,100067.83
2019-03-15T07:55:15.167Z,100062.05
2019-03-15T07:58:39.373Z,100058.38
2019-03-15T08:02:02.709Z,100057.86
2019-03-15T08:05:25.905Z,100030.42
2019-03-15T08:08:49.112Z,100040.02
2019-03-15T08:12:12.565Z,100031.84
2019-03-15T08:15:35.892Z,100039.70
2019-03-15T08:18:59.013Z,100035.75
2019-03-15T08:22:22.525Z,100034.47
2019-03-15T08:25:45.909Z,100044.48
2019-03-15T08:29:09.859Z,100044.34
2019-03-15T08:32:33.290Z,100034.70
2019-03-15T08:35:56.491Z,100032.03
2019-03-15T08:39:20.164Z,100034.66
2019-03-15T08:42:43.721Z,100036.60
2019-03-15T08:46:06.980Z,100040.73
2019-03-15T08:49:30.533Z,100048.41
2019-03-15T08:52:54.206Z,100053.78
2019-03-15T08:56:17.709Z,100039.04
2019-03-15T08:59:53.776Z,100031.17
2019-03-15T09:03:05.984Z,100029.52
2019-03-15T09:06:29.180Z,100038.06
2019-03-15T09:09:52.389Z,100040.75
2019-03-15T09:13:15.530Z,100045.70
2019-03-15T09:16:38.747Z,100041.23
2019-03-15T09:20:01.970Z,100047.11
2019-03-15T09:23:25.959Z,100047.12
2019-03-15T09:26:49.096Z,100044.33
2019-03-15T09:30:22.603Z,100046.06
2019-03-15T09:33:37.431Z,100038.94
2019-03-15T09:37:01.228Z,100041.64
2019-03-15T09:40:25.859Z,100042.74
2019-03-15T09:43:49.771Z,100039.95
2019-03-15T09:47:12.919Z,100030.72
2019-03-15T09:50:50.623Z,100031.85
2019-03-15T09:54:08.769Z,100034.24
2019-03-15T09:57:32.075Z,100052.34
2019-03-15T10:00:55.446Z,100040.75
2019-03-15T10:04:18.806Z,100048.33
2019-03-15T10:07:43.635Z,100054.77
2019-03-15T10:11:10.102Z,100047.97
2019-03-15T10:14:33.315Z,100051.66
2019-03-15T10:17:56.619Z,100042.88
2019-03-15T10:21:20.053Z,100042.88
2019-03-15T10:24:43.540Z,100055.66
2019-03-15T10:28:09.082Z,100054.16
2019-03-15T10:31:32.520Z,100049.32
2019-03-15T10:34:55.978Z,100058.75
2019-03-15T10:38:19.360Z,100063.27
2019-03-15T10:41:42.496Z,100068.59
2019-03-15T10:45:08.605Z,100072.59
2019-03-15T10:48:31.830Z,100062.89
2019-03-15T10:51:55.157Z,100069.69
2019-03-15T10:55:20.632Z,100073.20
2019-03-15T10:58:43.398Z,100077.53
2019-03-15T11:02:06.897Z,100076.93
2019-03-15T11:05:30.089Z,100083.89
2019-03-15T11:08:53.196Z,100077.98
2019-03-15T11:12:21.005Z,100087.09
2019-03-15T11:15:44.183Z,100083.75
2019-03-15T11:19:07.367Z,100107.78
2019-03-15T11:22:30.939Z,100110.35
2019-03-15T11:25:54.310Z,100119.39
2019-03-15T11:29:17.596Z,100105.26
2019-03-15T11:32:40.814Z,100108.00
2019-03-15T11:36:04.210Z,100122.66
2019-03-15T11:39:27.762Z,100112.06
2019-03-15T11:42:51.184Z,100114.79
2019-03-15T11:46:16.511Z,100130.36
2019-03-15T11:49:39.524Z,100114.44
2019-03-15T11:53:02.825Z,100108.17
2019-03-15T11:56:27.250Z,100109.41
2019-03-15T11:59:50.893Z,100108.67
2019-03-15T12:03:14.040Z,100106.08
2019-03-15T12:06:37.210Z,100097.36
2019-03-15T12:10:00.467Z,100112.81
2019-03-15T12:13:23.705Z,100100.36
2019-03-15T12:16:46.898Z,100117.30
2019-03-15T12:20:10.406Z,100096.89
2019-03-15T12:23:33.580Z,100098.93
2019-03-15T12:26:56.803Z,100102.09
2019-03-15T12:30:20.219Z,100107.09
2019-03-15T12:33:43.487Z,100101.42
2019-03-15T12:37:06.637Z,100102.84
2019-03-15T12:40:30.816Z,100116.48
2019-03-15T12:43:54.125Z,100122.58
2019-03-15T12:47:17.309Z,100119.72
2019-03-15T12:50:40.402Z,100135.34
2019-03-15T12:54:03.730Z,100111.92
2019-03-15T12:57:27.191Z,100082.55
2019-03-15T13:00:50.291Z,100077.28
2019-03-15T13:04:13.779Z,100094.37
2019-03-15T13:07:36.864Z,100076.16
2019-03-15T13:11:01.488Z,100093.38
2019-03-15T13:14:24.600Z,100096.34
2019-03-15T13:17:47.690Z,100091.95
2019-03-15T13:21:10.881Z,100092.03
2019-03-15T13:24:34.092Z,100090.48
2019-03-15T13:27:57.191Z,100081.14
2019-03-15T13:31:20.345Z,100088.52
2019-03-15T13:34:43.588Z,100079.64
2019-03-15T13:38:06.751Z,100083.55
2019-03-15T13:41:29.974Z,100086.96
2019-03-15T13:44:53.155Z,100094.67
2019-03-15T13:48:16.437Z,100089.56
2019-03-15T13:51:39.611Z,100078.13
2019-03-15T13:55:05.187Z,100081.67
2019-03-15T13:58:28.554Z,100084.54
2019-03-15T14:01:51.870Z,100072.52
2019-03-15T14:05:15.409Z,100072.31
2019-03-15T14:08:38.713Z,100077.62
2019-03-15T14:12:02.153Z,100067.97
2019-03-15T14:15:25.666Z,100078.99
2019-03-15T14:18:48.967Z,100079.07
2019-03-15T14:22:12.065Z,100079.34
2019-03-15T14:25:35.341Z,100074.91
2019-03-15T14:28:58.746Z,100080.06
2019-03-15T14:32:22.879Z,100082.30
2019-03-15T14:35:46.088Z,100101.34
2019-03-15T14:39:10.470Z,100089.17
2019-03-15T14:42:34.013Z,100109.28
2019-03-15T14:45:57.438Z,100105.22
2019-03-15T14:49:20.602Z,100096.69
2019-03-15T14:52:45.059Z,100102.10
2019-03-15T14:56:08.107Z,100102.45
2019-03-15T14:59:31.292Z,100093.28
2019-03-15T15:02:54.683Z,100100.39
2019-03-15T15:06:17.831Z,100101.45
2019-03-15T15:09:41.072Z,100105.58
2019-03-15T15:13:04.148Z,100103.70
2019-03-15T15:16:27.508Z,100100.67
2019-03-15T15:19:50.725Z,100088.25
2019-03-15T15:23:14.241Z,100097.94
2019-03-15T15:26:37.466Z,100094.90
2019-03-15T15:30:00.612Z,100081.25
2019-03-15T15:33:23.852Z,100070.06
2019-03-15T15:36:47.117Z,100086.07
2019-03-15T15:40:10.732Z,100081.30
2019-03-15T15:43:34.183Z,100101.16
2019-03-15T15:46:58.630Z,100102.09
2019-03-15T15:50:21.775Z,100113.56
2019-03-15T15:53:45.017Z,100109.83
2019-03-15T15:57:08.186Z,100097.36
2019-03-15T16:00:31.417Z,100095.28
2019-03-15T16:23:59.579Z,100094.10
2019-03-15T16:27:23.297Z,100085.67
2019-03-15T16:30:46.466Z,100086.08
2019-03-15T16:34:09.658Z,100085.70
2019-03-15T16:37:32.852Z,100088.66
2019-03-15T16:40:55.999Z,100079.17
2019-03-15T16:44:19.362Z,100072.21
2019-03-15T16:47:42.813Z,100076.98
2019-03-15T16:51:18.730Z,100113.03
2019-03-15T16:54:31.004Z,100147.42
2019-03-15T16:57:54.482Z,100109.22
2019-03-15T17:01:17.644Z,100149.73
2019-03-15T17:04:40.861Z,100150.00
2019-03-15T17:08:03.943Z,100159.64
2019-03-15T17:11:27.334Z,100155.41
2019-03-15T17:14:50.610Z,100159.67
2019-03-15T17:18:19.605Z,100173.34
2019-03-15T17:21:44.044Z,100170.09
2019-03-15T17:25:08.124Z,100187.11
2019-03-15T17:28:31.532Z,100188.83
2019-03-15T17:31:54.831Z,100187.77
2019-03-15T17:35:18.038Z,100212.45
2019-03-15T17:38:41.181Z,100225.49
2019-03-15T17:42:04.350Z,100216.83
2019-03-15T17:45:27.829Z,100223.63
2019-03-15T17:48:51.053Z,100239.59
2019-03-15T17:52:14.526Z,100220.78
2019-03-15T17:55:37.639Z,100224.97
2019-03-15T17:59:11.803Z,100263.10
2019-03-15T18:02:26.210Z,100273.05
2019-03-15T18:05:49.315Z,100278.63
2019-03-15T18:09:12.703Z,100300.89
2019-03-15T18:12:36.001Z,100303.69
2019-03-15T18:15:59.301Z,100320.22
2019-03-15T18:19:22.745Z,100321.20
2019-03-15T18:22:46.277Z,100327.12
2019-03-15T18:26:09.632Z,100314.67
2019-03-15T18:29:33.052Z,100312.47
2019-03-15T18:32:56.855Z,100317.59
2019-03-15T18:36:20.483Z,100329.18
2019-03-15T18:39:46.121Z,100328.20
2019-03-15T18:43:09.549Z,100355.44
2019-03-15T18:46:33.015Z,100370.80
2019-03-15T18:49:56.540Z,100371.42
2019-03-15T18:53:19.789Z,100379.94
2019-03-15T18:56:45.548Z,100389.81
2019-03-15T19:00:15.297Z,100384.87
2019-03-15T19:03:39.030Z,100385.23
2019-03-15T19:07:04.735Z,100391.12
2019-03-15T19:10:28.241Z,100389.59
2019-03-15T19:13:51.531Z,100401.34
2019-03-15T19:17:15.007Z,100402.87
2019-03-15T19:20:38.603Z,100409.05
2019-03-15T19:24:05.624Z,100408.73
2019-03-15T19:27:28.908Z,100411.66
2019-03-15T19:30:54.509Z,100414.38
2019-03-15T19:34:17.955Z,100420.00
2019-03-15T19:37:41.256Z,100417.28
2019-03-15T19:41:06.333Z,100426.68
2019-03-15T19:44:30.922Z,100434.19
2019-03-15T19:47:54.784Z,100449.61
2019-03-15T19:51:17.930Z,100452.08
2019-03-15T19:54:41.544Z,100452.16
2019-03-15T19:58:04.850Z,100472.55
2019-03-15T20:01:29.168Z,100484.16
2019-03-15T20:04:52.465Z,100490.84
2019-03-15T20:08:15.993Z,100502.59
2019-03-15T20:11:39.731Z,100511.25
2019-03-15T20:18:40.670Z,100521.58
2019-03-15T20:22:04.112Z,100513.09
2019-03-15T20:25:27.548Z,100512.53
2019-03-15T20:32:57.334Z,100526.74
2019-03-15T20:36:20.580Z,100528.09
2019-03-15T20:39:44.185Z,100541.19
2019-03-15T20:43:07.277Z,100538.35
2019-03-15T20:46:35.730Z,100538.25
2019-03-15T20:49:55.954Z,100537.86
2019-03-15T20:53:19.386Z,100560.94
2019-03-15T20:56:44.512Z,100547.62
2019-03-15T21:00:10.659Z,100548.63
2019-03-15T21:03:34.703Z,100549.00
2019-03-15T21:06:58.227Z,100541.74
2019-03-15T21:10:21.398Z,100536.28
2019-03-15T21:13:45.176Z,100546.19
2019-03-15T21:17:13.161Z,100552.09
2019-03-15T21:20:36.337Z,100555.25
2019-03-15T21:23:59.523Z,100556.41
2019-03-15T21:27:22.755Z,100551.61
2019-03-15T21:30:48.593Z,100541.66
2019-03-15T21:34:11.940Z,100542.37
2019-03-15T21:37:35.832Z,100555.63
2019-03-15T21:40:59.001Z,100561.50
2019-03-15T21:44:22.163Z,100568.28
2019-03-15T21:47:45.654Z,100575.70
2019-03-15T21:51:08.886Z,100579.97
2019-03-15T21:54:32.720Z,100582.14
2019-03-15T21:57:56.226Z,100587.86
2019-03-15T22:01:19.631Z,100583.49
2019-03-15T22:04:43.329Z,100591.95
2019-03-15T22:08:06.851Z,100605.36
2019-03-15T22:11:30.220Z,100606.68
2019-03-15T22:14:54.159Z,100611.80
2019-03-15T22:18:17.361Z,100613.92
2019-03-15T22:21:40.681Z,100615.84
2019-03-15T22:25:03.944Z,100605.98
2019-03-15T22:28:27.104Z,100620.03
2019-03-15T22:31:50.643Z,100614.09
2019-03-15T22:35:13.832Z,100620.83
2019-03-15T22:38:36.944Z,100620.28
2019-03-15T22:42:00.182Z,100624.91
2019-03-15T22:45:23.373Z,100625.28
2019-03-15T22:48:46.846Z,100629.92
2019-03-15T22:52:09.973Z,100620.47
2019-03-15T22:55:33.468Z,100627.88
2019-03-15T22:58:56.970Z,100635.02
2019-03-15T23:02:20.204Z,100649.48
2019-03-15T23:05:43.540Z,100652.78
2019-03-15T23:09:07.157Z,100664.78
2019-03-15T23:12:30.363Z,100666.42
2019-03-15T23:15:53.487Z,100669.25
2019-03-15T23:19:16.792Z,100666.88
2019-03-15T23:22:41.082Z,100689.59
2019-03-15T23:26:04.289Z,100690.19
2019-03-15T23:29:27.410Z,100673.29
2019-03-15T23:32:50.649Z,100665.77
2019-03-15T23:36:13.749Z,100680.83
2019-03-15T23:39:36.912Z,100682.55
2019-03-15T23:42:59.993Z,100673.01
2019-03-15T23:46:23.109Z,100681.31
2019-03-15T23:49:46.188Z,100681.53
2019-03-15T23:53:09.461Z,100683.14
2019-03-15T23:56:32.565Z,100676.53
2019-03-15T23:59:55.706Z,100684.39
